Time;durP1;ratioP1;P1;durP2;ratioP2;P2;SDS_P1;SDS_P2;PMS_P1;PMS_P2;Temp;Humidity;BMP_temperature;BMP_pressure;BME280_temperature;BME280_humidity;BME280_pressure;Samples;Min_cycle;Max_cycle;Signal;HPM_P1;HPM_P2
2023/10/17 00:02:11;;;;;;;;;;;;;;;4.24;100.00;99636.69;106183;1251;61372;-74
2023/10/17 00:04:41;;;;;;;;;;;;;;;4.22;100.00;99639.64;106612;1250;73474;-74
2023/10/17 00:07:08;;;;;;;;;;;;;;;4.21;100.00;99642.60;106626;1251;71680;-75
2023/10/17 00:09:38;;;;;;;;;;;;;;;4.20;100.00;99640.01;106188;1250;61246;-74
2023/10/17 00:14:57;;;;;;;;;;;;;;;4.18;100.00;99641.23;106189;1250;61263;-74
2023/10/17 00:17:24;;;;;;;;;;;;;;;4.18;100.00;99641.41;106141;1254;74633;-74
2023/10/17 00:19:50;;;;;;;;;;;;;;;4.18;100.00;99646.61;106228;1250;69817;-75
2023/10/17 00:22:25;;;;;;;;;;;;;;;4.19;100.00;99651.13;106652;1254;72456;-76
2023/10/17 00:24:55;;;;;;;;;;;;;;;4.19;100.00;99651.81;107127;1254;61726;-73
2023/10/17 00:27:22;;;;;;;;;;;;;;;4.20;100.00;99652.52;106611;1253;61320;-73
2023/10/17 00:29:49;;;;;;;;;;;;;;;4.23;100.00;99653.87;106239;1250;73194;-74
2023/10/17 00:32:16;;;;;;;;;;;;;;;4.25;100.00;99656.29;106147;1250;70920;-74
2023/10/17 00:34:43;;;;;;;;;;;;;;;4.27;100.00;99655.76;107450;1250;61334;-74
2023/10/17 00:37:20;;;;;;;;;;;;;;;4.29;100.00;99654.70;106687;1251;61822;-74
2023/10/17 00:39:47;;;;;;;;;;;;;;;4.31;100.00;99653.13;106437;1251;61165;-74
2023/10/17 00:42:34;;;;;;;;;;;;;;;4.34;100.00;99657.96;107439;1250;73205;-75
2023/10/17 00:45:01;;;;;;;;;;;;;;;4.36;100.00;99660.20;106156;1250;71625;-73
2023/10/17 00:47:29;;;;;;;;;;;;;;;4.39;100.00;99655.33;106208;1251;72633;-74
2023/10/17 00:49:59;;;;;;;;;;;;;;;4.40;100.00;99659.30;106151;1250;61675;-75
2023/10/17 00:52:29;;;;;;;;;;;;;;;4.41;100.00;99654.61;106732;1250;61093;-74
2023/10/17 00:54:55;;;;;;;;;;;;;;;4.43;100.00;99659.47;106687;1250;73514;-74
2023/10/17 00:57:22;;;;;;;;;;;;;;;4.43;100.00;99664.15;106889;1255;68750;-73
2023/10/17 00:59:53;;;;;;;;;;;;;;;4.42;100.00;99666.24;106545;1250;72493;-74
2023/10/17 01:05:11;;;;;;;;;;;;;;;4.40;100.00;99665.56;107054;1251;61346;-74
2023/10/17 01:07:40;;;;;;;;;;;;;;;4.38;100.00;99669.23;106717;1254;74618;-74
2023/10/17 01:10:10;;;;;;;;;;;;;;;4.36;100.00;99671.34;106212;1250;71372;-74
2023/10/17 01:12:52;;;;;;;;;;;;;;;4.35;100.00;99672.20;107395;1250;72660;-74
2023/10/17 01:15:21;;;;;;;;;;;;;;;4.34;100.00;99677.06;106283;1250;61843;-74
2023/10/17 01:17:48;;;;;;;;;;;;;;;4.33;100.00;99679.84;106085;1253;61413;-73
2023/10/17 01:20:19;;;;;;;;;;;;;;;4.33;100.00;99682.11;107191;1250;75145;-75
2023/10/17 01:22:47;;;;;;;;;;;;;;;4.34;100.00;99688.18;106493;1250;69916;-74
2023/10/17 01:25:25;;;;;;;;;;;;;;;4.34;100.00;99690.09;106732;1250;72587;-73
2023/10/17 01:27:52;;;;;;;;;;;;;;;4.35;100.00;99685.23;106596;1251;61814;-74
2023/10/17 01:30:19;;;;;;;;;;;;;;;4.36;100.00;99688.16;106692;1252;61397;-74
2023/10/17 01:32:50;;;;;;;;;;;;;;;4.38;100.00;99690.59;106643;1251;74525;-74
2023/10/17 01:35:20;;;;;;;;;;;;;;;4.41;100.00;99695.43;107541;1250;69556;-74
2023/10/17 01:37:46;;;;;;;;;;;;;;;4.43;100.00;99702.53;106143;1251;73135;-74
2023/10/17 01:40:22;;;;;;;;;;;;;;;4.46;100.00;99703.55;107356;1253;61344;-75
2023/10/17 01:42:50;;;;;;;;;;;;;;;4.51;100.00;99708.05;106564;1250;61366;-75
2023/10/17 01:45:20;;;;;;;;;;;;;;;4.55;100.00;99710.80;106301;1256;74513;-75
2023/10/17 01:47:47;;;;;;;;;;;;;;;4.58;100.00;99709.21;106276;1254;69806;-75
2023/10/17 01:50:14;;;;;;;;;;;;;;;4.60;100.00;99715.10;106393;1250;72500;-74
2023/10/17 01:52:42;;;;;;;;;;;;;;;4.64;100.00;99717.16;107721;1254;62065;-75
2023/10/17 01:55:14;;;;;;;;;;;;;;;4.66;100.00;99722.02;106518;1252;61171;-73
2023/10/17 01:57:41;;;;;;;;;;;;;;;4.68;100.00;99721.99;106131;1252;73932;-74
2023/10/17 02:00:13;;;;;;;;;;;;;;;4.70;100.00;99721.29;106152;1250;70937;-74
2023/10/17 02:02:42;;;;;;;;;;;;;;;4.72;100.00;99719.88;106235;1254;72479;-74
2023/10/17 02:05:12;;;;;;;;;;;;;;;4.74;100.00;99723.69;106697;1250;62076;-74
2023/10/17 02:07:39;;;;;;;;;;;;;;;4.75;100.00;99724.20;107522;1251;61215;-76
2023/10/17 02:10:07;;;;;;;;;;;;;;;4.76;100.00;99724.54;107607;1250;74375;-74
2023/10/17 02:12:36;;;;;;;;;;;;;;;4.77;100.00;99722.95;106729;1250;71079;-74
2023/10/17 02:15:05;;;;;;;;;;;;;;;4.78;100.00;99716.35;106704;1250;71396;-76
2023/10/17 02:17:33;;;;;;;;;;;;;;;4.78;100.00;99718.61;106211;1254;61934;-75
2023/10/17 02:20:01;;;;;;;;;;;;;;;4.77;100.00;99718.63;106863;1251;61359;-74
2023/10/17 02:22:30;;;;;;;;;;;;;;;4.74;100.00;99721.78;106517;1250;74664;-75
2023/10/17 02:24:57;;;;;;;;;;;;;;;4.71;100.00;99727.35;107425;1250;71138;-75
2023/10/17 02:27:27;;;;;;;;;;;;;;;4.69;100.00;99733.63;106582;1254;71479;-74
2023/10/17 02:29:54;;;;;;;;;;;;;;;4.67;100.00;99734.34;106482;1251;61640;-74
2023/10/17 02:32:21;;;;;;;;;;;;;;;4.66;100.00;99741.11;107434;1250;61344;-74
2023/10/17 02:34:48;;;;;;;;;;;;;;;4.67;100.00;99743.55;106552;1252;74577;-73
2023/10/17 02:37:18;;;;;;;;;;;;;;;4.68;100.00;99747.19;103823;1256;1003363;-74
2023/10/17 02:39:45;;;;;;;;;;;;;;;4.69;100.00;99751.19;107738;1250;72684;-73
2023/10/17 02:42:12;;;;;;;;;;;;;;;4.70;100.00;99749.61;106081;1251;61418;-74
2023/10/17 02:44:43;;;;;;;;;;;;;;;4.71;100.00;99752.91;106177;1251;61149;-74
2023/10/17 02:47:15;;;;;;;;;;;;;;;4.70;100.00;99750.65;107370;1253;74090;-74
2023/10/17 02:49:43;;;;;;;;;;;;;;;4.70;100.00;99746.65;106249;1250;70048;-74
2023/10/17 02:52:10;;;;;;;;;;;;;;;4.69;100.00;99750.66;106246;1254;73600;-73
2023/10/17 02:54:55;;;;;;;;;;;;;;;4.68;100.00;99757.27;107044;1250;61135;-74
2023/10/17 02:57:23;;;;;;;;;;;;;;;4.66;100.00;99754.85;106609;1250;61283;-74
2023/10/17 02:59:57;;;;;;;;;;;;;;;4.64;100.00;99762.17;106182;1254;75016;-75
2023/10/17 03:02:30;;;;;;;;;;;;;;;4.64;100.00;99764.43;106505;1250;1002546;-74
2023/10/17 03:05:11;;;;;;;;;;;;;;;4.64;100.00;99764.42;106339;1250;72934;-75
2023/10/17 03:07:38;;;;;;;;;;;;;;;4.65;100.00;99764.58;107057;1250;61166;-73
2023/10/17 03:10:06;;;;;;;;;;;;;;;4.67;100.00;99768.58;106579;1250;61166;-74
2023/10/17 03:12:40;;;;;;;;;;;;;;;4.68;100.00;99765.61;106147;1250;74657;-73
2023/10/17 03:15:18;;;;;;;;;;;;;;;4.70;100.00;99772.38;106195;1254;70970;-73
2023/10/17 03:17:45;;;;;;;;;;;;;;;4.70;100.00;99771.50;106956;1254;72988;-74
2023/10/17 03:20:13;;;;;;;;;;;;;;;4.69;100.00;99767.70;106195;1250;61311;-74
2023/10/17 03:22:41;;;;;;;;;;;;;;;4.67;100.00;99765.44;106350;1253;61231;-74
2023/10/17 03:25:20;;;;;;;;;;;;;;;4.64;100.00;99773.80;106053;1250;73197;-73
2023/10/17 03:27:50;;;;;;;;;;;;;;;4.60;100.00;99777.82;106192;1250;71064;-73
2023/10/17 03:30:20;;;;;;;;;;;;;;;4.57;100.00;99783.41;107772;1252;72765;-75
2023/10/17 03:35:28;;;;;;;;;;;;;;;4.48;100.00;99788.33;106168;1250;61262;-72
2023/10/17 03:37:54;;;;;;;;;;;;;;;4.42;100.00;99786.61;106347;1250;74938;-74
2023/10/17 03:40:30;;;;;;;;;;;;;;;4.37;100.00;99790.11;106138;1250;68727;-74
2023/10/17 03:43:12;;;;;;;;;;;;;;;4.33;100.00;99798.81;106195;1250;72488;-74
2023/10/17 03:45:43;;;;;;;;;;;;;;;4.27;100.00;99803.17;106198;1254;61231;-74
2023/10/17 03:48:13;;;;;;;;;;;;;;;4.22;100.00;99798.34;106416;1254;61289;-74
2023/10/17 03:53:29;;;;;;;;;;;;;;;4.13;100.00;99807.58;106577;1252;70477;-73
2023/10/17 03:56:00;;;;;;;;;;;;;;;4.08;100.00;99808.98;106188;1250;72483;-73
2023/10/17 04:00:57;;;;;;;;;;;;;;;4.01;100.00;99811.62;106201;1250;61344;-75
2023/10/17 04:03:30;;;;;;;;;;;;;;;3.98;100.00;99818.39;106918;1249;73670;-74
2023/10/17 04:06:41;;;;;;;;;;;;;;;3.97;100.00;99821.16;106642;1253;71721;-75
2023/10/17 04:08:59;;;;;;;;;;;;;;;3.94;100.00;99824.82;106926;1250;72956;-73
2023/10/17 04:11:27;;;;;;;;;;;;;;;3.95;100.00;99827.08;106623;1253;61861;-74
2023/10/17 04:13:56;;;;;;;;;;;;;;;3.96;100.00;99829.51;106101;1250;61267;-73
2023/10/17 04:16:27;;;;;;;;;;;;;;;3.96;100.00;99836.44;106059;1250;74403;-74
2023/10/17 04:21:45;;;;;;;;;;;;;;;4.00;100.00;99840.27;106398;1254;72352;-74
2023/10/17 04:24:26;;;;;;;;;;;;;;;4.01;100.00;99843.39;105418;1256;1003749;-74
2023/10/17 04:27:06;;;;;;;;;;;;;;;4.02;100.00;99845.98;106918;1250;61152;-74
2023/10/17 04:29:33;;;;;;;;;;;;;;;4.04;100.00;99854.30;106712;1252;74642;-74
2023/10/17 04:32:09;;;;;;;;;;;;;;;4.05;100.00;99860.38;106200;1253;71152;-74
2023/10/17 04:34:45;;;;;;;;;;;;;;;4.07;100.00;99859.85;106112;1254;72726;-74
2023/10/17 04:37:16;;;;;;;;;;;;;;;4.07;100.00;99869.23;106185;1251;61277;-74
2023/10/17 04:39:50;;;;;;;;;;;;;;;4.08;100.00;99869.75;106194;1250;61335;-74
2023/10/17 04:42:26;;;;;;;;;;;;;;;4.09;100.00;99873.55;106409;1250;74387;-74
2023/10/17 04:44:55;;;;;;;;;;;;;;;4.10;100.00;99876.33;107310;1250;70945;-73
2023/10/17 04:49:54;;;;;;;;;;;;;;;4.10;100.00;99879.98;106220;1251;62481;-73
2023/10/17 04:52:23;;;;;;;;;;;;;;;4.11;100.00;99878.77;106613;1250;61259;-74
2023/10/17 04:54:53;;;;;;;;;;;;;;;4.10;100.00;99881.20;106221;1254;73462;-74
2023/10/17 04:57:19;;;;;;;;;;;;;;;4.09;100.00;99883.10;106191;1250;70613;-75
2023/10/17 05:07:30;;;;;;;;;;;;;;;4.08;100.00;99890.23;106190;1250;74464;-74
2023/10/17 06:19:18;;;;;;;;;;;;;;;4.69;100.00;99949.98;106230;1250;69727;-74
2023/10/17 06:35:20;;;;;;;;;;;;;;;5.08;100.00;99959.70;107557;1250;71139;-75
2023/10/17 06:37:49;;;;;;;;;;;;;;;5.15;100.00;99962.45;106229;1250;61212;-75
2023/10/17 06:40:17;;;;;;;;;;;;;;;5.22;100.00;99963.10;106428;1251;61183;-74
2023/10/17 06:42:49;;;;;;;;;;;;;;;5.28;100.00;99961.85;106392;1254;74665;-72
2023/10/17 06:45:18;;;;;;;;;;;;;;;5.37;100.00;99961.98;107488;1251;71736;-75
2023/10/17 06:47:49;;;;;;;;;;;;;;;5.41;100.00;99961.77;106623;1252;72650;-73
2023/10/17 06:50:17;;;;;;;;;;;;;;;5.44;100.00;99958.11;106253;1253;61213;-74
2023/10/17 06:55:21;;;;;;;;;;;;;;;5.46;100.00;99958.44;106631;1252;74413;-74
2023/10/17 06:57:52;;;;;;;;;;;;;;;5.45;100.00;99958.10;106305;1250;71068;-74
2023/10/17 07:02:59;;;;;;;;;;;;;;;5.49;100.00;99960.17;106406;1250;61330;-75
2023/10/17 07:05:26;;;;;;;;;;;;;;;5.54;100.00;99958.37;107085;1250;61350;-74
2023/10/17 07:07:54;;;;;;;;;;;;;;;5.67;100.00;99964.55;107129;1250;72906;-75
2023/10/17 07:13:22;;;;;;;;;;;;;;;5.92;100.00;99959.14;106198;1250;72377;-74
2023/10/17 07:15:52;;;;;;;;;;;;;;;5.93;100.00;99962.98;106998;1251;61234;-74
2023/10/17 07:23:42;;;;;;;;;;;;;;;5.95;100.00;99958.94;106886;1250;71153;-74
2023/10/17 07:26:52;;;;;;;;;;;;;;;5.98;100.00;99959.28;106142;1250;73057;-75
2023/10/17 07:29:04;;;;;;;;;;;;;;;6.07;100.00;99964.78;107160;1250;61652;-74
2023/10/17 07:31:32;;;;;;;;;;;;;;;6.14;100.00;99961.06;106306;1250;61215;-73
2023/10/17 07:36:43;;;;;;;;;;;;;;;6.36;100.00;99962.59;106640;1250;71141;-76
2023/10/17 07:39:24;;;;;;;;;;;;;;;6.42;100.00;99956.95;107474;1250;72614;-74
2023/10/17 07:41:55;;;;;;;;;;;;;;;6.43;100.00;99957.98;106349;1254;61151;-74
2023/10/17 07:44:22;;;;;;;;;;;;;;;6.42;100.00;99963.58;106253;1251;61327;-74
2023/10/17 07:46:50;;;;;;;;;;;;;;;6.41;100.00;99962.55;104071;1254;1003674;-75
2023/10/17 07:49:26;;;;;;;;;;;;;;;6.46;100.00;99964.91;106675;1254;69953;-75
2023/10/17 07:51:55;;;;;;;;;;;;;;;6.61;100.00;99965.98;107465;1250;72780;-76
2023/10/17 07:54:28;;;;;;;;;;;;;;;6.75;100.00;99973.50;106634;1254;61333;-75
2023/10/17 07:56:58;;;;;;;;;;;;;;;6.75;100.00;99971.40;106456;1250;61339;-75
2023/10/17 07:59:31;;;;;;;;;;;;;;;6.63;100.00;99972.58;106186;1254;74198;-74
2023/10/17 08:01:59;;;;;;;;;;;;;;;6.51;100.00;99969.77;106212;1250;71141;-73
2023/10/17 08:04:30;;;;;;;;;;;;;;;6.39;100.00;99976.85;107379;1250;74137;-72
2023/10/17 08:06:59;;;;;;;;;;;;;;;6.28;100.00;99978.52;106255;1254;61356;-74
2023/10/17 08:09:36;;;;;;;;;;;;;;;6.28;100.00;99979.75;106232;1255;61337;-74
2023/10/17 08:12:08;;;;;;;;;;;;;;;6.41;100.00;99984.50;107009;1253;73998;-74
2023/10/17 08:14:41;;;;;;;;;;;;;;;6.62;100.00;99987.42;106594;1250;70970;-74
2023/10/17 08:17:11;;;;;;;;;;;;;;;6.83;100.00;99989.62;106338;1250;72435;-74
2023/10/17 08:22:26;;;;;;;;;;;;;;;7.02;100.00;99982.59;106619;1251;61339;-77
2023/10/17 08:24:57;;;;;;;;;;;;;;;7.17;100.00;99984.50;106864;1254;74491;-74
2023/10/17 08:30:00;;;;;;;;;;;;;;;7.37;100.00;99988.06;107579;1250;72630;-76
2023/10/17 08:34:59;;;;;;;;;;;;;;;7.38;100.00;99983.32;107244;1251;61365;-75
2023/10/17 08:37:40;;;;;;;;;;;;;;;7.37;100.00;99981.43;107358;1250;74908;-74
2023/10/17 08:42:52;;;;;;;;;;;;;;;7.42;100.00;99977.34;106232;1251;72812;-75
2023/10/17 08:45:19;;;;;;;;;;;;;;;7.42;100.00;99979.09;106198;1250;61255;-73
2023/10/17 08:47:46;;;;;;;;;;;;;;;7.40;100.00;99978.59;106218;1254;61228;-75
2023/10/17 08:50:15;;;;;;;;;;;;;;;7.39;100.00;99978.42;106259;1250;73615;-73
2023/10/17 08:52:43;;;;;;;;;;;;;;;7.39;100.00;99971.61;106162;1250;72359;-75
2023/10/17 08:55:15;;;;;;;;;;;;;;;7.46;100.00;99973.62;106599;1250;72649;-73
2023/10/17 08:57:41;;;;;;;;;;;;;;;7.58;100.00;99972.92;107415;1250;61223;-73
2023/10/17 09:02:35;;;;;;;;;;;;;;;7.85;100.00;99978.09;106200;1254;73524;-74
2023/10/17 09:05:11;;;;;;;;;;;;;;;7.91;100.00;99976.42;106036;1250;71418;-74
2023/10/17 09:07:43;;;;;;;;;;;;;;;7.95;100.00;99966.23;106234;1250;73117;-73
2023/10/17 09:10:16;;;;;;;;;;;;;;;8.06;100.00;99964.30;106506;1250;61254;-74
2023/10/17 09:12:43;;;;;;;;;;;;;;;8.23;100.00;99964.88;107315;1251;61129;-73
2023/10/17 09:15:27;;;;;;;;;;;;;;;8.39;100.00;99965.66;106689;1250;73744;-73
2023/10/17 09:18:07;;;;;;;;;;;;;;;8.48;100.00;99957.27;106760;1255;69611;-74
2023/10/17 09:20:36;;;;;;;;;;;;;;;8.55;100.00;99962.57;106453;1250;72525;-74
2023/10/17 09:23:04;;;;;;;;;;;;;;;8.60;100.00;99960.89;107366;1250;61253;-74
2023/10/17 09:25:31;;;;;;;;;;;;;;;8.59;100.00;99968.08;107358;1250;61317;-75
2023/10/17 09:27:59;;;;;;;;;;;;;;;8.50;100.00;99963.70;106614;1250;74485;-75
2023/10/17 09:30:26;;;;;;;;;;;;;;;8.46;100.00;99962.56;106182;1250;71125;-75
2023/10/17 09:32:53;;;;;;;;;;;;;;;8.44;100.00;99955.95;106164;1250;72880;-73
2023/10/17 09:35:20;;;;;;;;;;;;;;;8.42;100.00;99952.13;106183;1250;61285;-73
2023/10/17 09:37:51;;;;;;;;;;;;;;;8.43;100.00;99950.70;106188;1250;61305;-74
2023/10/17 09:40:25;;;;;;;;;;;;;;;8.49;100.00;99952.19;107204;1254;74710;-74
2023/10/17 09:42:53;;;;;;;;;;;;;;;8.58;100.00;99954.83;107410;1250;71024;-74
2023/10/17 09:45:20;;;;;;;;;;;;;;;8.59;100.00;99944.66;106228;1250;72834;-74
2023/10/17 09:48:04;;;;;;;;;;;;;;;8.67;100.00;99940.82;106992;1250;61503;-74
2023/10/17 09:50:33;;;;;;;;;;;;;;;8.79;100.00;99938.48;106574;1256;61257;-74
2023/10/17 09:52:59;;;;;;;;;;;;;;;8.86;100.00;99935.38;106210;1254;74405;-73
2023/10/17 09:55:26;;;;;;;;;;;;;;;8.90;100.00;99940.70;106326;1250;71056;-74
2023/10/17 09:57:55;;;;;;;;;;;;;;;8.91;100.00;99933.86;106596;1254;72893;-75
2023/10/17 10:00:34;;;;;;;;;;;;;;;8.90;100.00;99931.79;106266;1250;61424;-74
2023/10/17 10:03:01;;;;;;;;;;;;;;;8.95;100.00;99930.27;106207;1256;61278;-74
2023/10/17 10:05:42;;;;;;;;;;;;;;;9.02;100.00;99927.86;107392;1250;73288;-74
2023/10/17 10:08:28;;;;;;;;;;;;;;;9.12;100.00;99928.50;107091;1250;71199;-73
2023/10/17 10:10:56;;;;;;;;;;;;;;;9.20;100.00;99929.73;106165;1250;71149;-74
2023/10/17 10:13:24;;;;;;;;;;;;;;;9.22;100.00;99929.35;106356;1254;61269;-75
2023/10/17 10:15:58;;;;;;;;;;;;;;;9.21;100.00;99928.83;107820;1250;61228;-74
2023/10/17 10:18:34;;;;;;;;;;;;;;;9.32;100.00;99929.83;106283;1250;73124;-74
2023/10/17 10:21:02;;;;;;;;;;;;;;;9.43;100.00;99925.17;107413;1250;69976;-75
2023/10/17 10:23:34;;;;;;;;;;;;;;;9.52;100.00;99930.08;106914;1250;71458;-75
2023/10/17 10:26:14;;;;;;;;;;;;;;;9.62;100.00;99931.05;106197;1251;61346;-75
2023/10/17 10:28:41;;;;;;;;;;;;;;;9.67;100.00;99928.11;106690;1254;61348;-74
2023/10/17 10:31:29;;;;;;;;;;;;;;;9.68;100.00;99928.45;106078;1249;75649;-76
2023/10/17 10:33:55;;;;;;;;;;;;;;;9.74;100.00;99921.48;107144;1256;70867;-74
2023/10/17 10:36:23;;;;;;;;;;;;;;;9.82;100.00;99921.45;106222;1250;72559;-74
2023/10/17 10:39:08;;;;;;;;;;;;;;;9.96;100.00;99928.27;106081;1250;219271;-73
2023/10/17 10:41:35;;;;;;;;;;;;;;;9.92;100.00;99928.55;106298;1251;61270;-72
2023/10/17 10:44:01;;;;;;;;;;;;;;;9.66;100.00;99927.60;106591;1250;74703;-74
2023/10/17 10:46:30;;;;;;;;;;;;;;;9.44;100.00;99930.60;106225;1255;70167;-75
2023/10/17 10:48:57;;;;;;;;;;;;;;;9.31;100.00;99924.59;106633;1250;72900;-74
2023/10/17 10:51:27;;;;;;;;;;;;;;;9.34;100.00;99925.75;106205;1256;61253;-75
2023/10/17 10:53:54;;;;;;;;;;;;;;;9.51;100.00;99922.73;106233;1250;61299;-74
2023/10/17 10:56:22;;;;;;;;;;;;;;;9.70;100.00;99930.66;107041;1255;74790;-74
2023/10/17 10:58:55;;;;;;;;;;;;;;;9.91;100.00;99920.70;106613;1255;70931;-73
2023/10/17 11:01:22;;;;;;;;;;;;;;;10.09;100.00;99912.88;106221;1254;71171;-72
2023/10/17 11:03:49;;;;;;;;;;;;;;;10.14;100.00;99914.84;106168;1255;61422;-74
2023/10/17 11:06:23;;;;;;;;;;;;;;;10.23;100.00;99913.02;106271;1256;61343;-75
2023/10/17 11:08:50;;;;;;;;;;;;;;;10.33;100.00;99910.85;106221;1250;73633;-73
2023/10/17 11:11:16;;;;;;;;;;;;;;;10.43;100.00;99912.88;107505;1251;71125;-73
2023/10/17 11:13:45;;;;;;;;;;;;;;;10.54;100.00;99908.37;105504;1251;1003035;-74
2023/10/17 11:16:12;;;;;;;;;;;;;;;10.66;100.00;99905.55;106212;1256;61627;-74
2023/10/17 11:18:40;;;;;;;;;;;;;;;10.81;100.00;99905.11;106116;1256;61132;-75
2023/10/17 11:21:09;;;;;;;;;;;;;;;10.92;100.00;99906.05;106814;1250;75198;-75
2023/10/17 11:23:42;;;;;;;;;;;;;;;10.84;98.58;99907.86;106327;1256;69665;-74
2023/10/17 11:26:12;;;;;;;;;;;;;;;10.65;94.22;99911.71;106173;1256;72453;-74
2023/10/17 11:28:55;;;;;;;;;;;;;;;10.49;95.99;99906.21;106232;1250;61218;-74
2023/10/17 11:31:22;;;;;;;;;;;;;;;10.40;99.65;99900.84;106158;1255;61237;-74
2023/10/17 11:34:03;;;;;;;;;;;;;;;10.41;99.73;99897.84;106613;1252;72388;-73
2023/10/17 11:36:45;;;;;;;;;;;;;;;10.49;100.00;99904.84;106531;1250;71489;-73
2023/10/17 11:39:15;;;;;;;;;;;;;;;10.75;99.43;99908.83;106237;1255;72451;-74
2023/10/17 11:41:53;;;;;;;;;;;;;;;10.89;90.30;99910.00;106041;1250;61471;-73
2023/10/17 11:44:23;;;;;;;;;;;;;;;10.90;83.80;99912.77;107000;1256;61125;-74
2023/10/17 11:47:02;;;;;;;;;;;;;;;10.87;93.83;99907.06;106189;1250;74484;-74
2023/10/17 11:49:31;;;;;;;;;;;;;;;11.03;86.98;99905.00;107344;1254;71623;-74
2023/10/17 11:52:10;;;;;;;;;;;;;;;11.17;73.11;99914.24;106507;1250;72635;-75
2023/10/17 11:54:54;;;;;;;;;;;;;;;11.15;69.73;99911.30;106211;1255;61341;-74
2023/10/17 11:57:24;;;;;;;;;;;;;;;11.26;70.91;99912.73;107009;1256;61243;-75
2023/10/17 12:00:07;;;;;;;;;;;;;;;11.41;63.87;99901.71;106170;1256;76340;-74
2023/10/17 12:02:41;;;;;;;;;;;;;;;11.57;65.22;99896.98;107131;1250;69962;-75
2023/10/17 12:05:17;;;;;;;;;;;;;;;11.69;67.18;99902.77;106235;1254;73545;-75
2023/10/17 12:07:53;;;;;;;;;;;;;;;11.61;66.44;99905.84;106252;1250;62009;-75
2023/10/17 12:10:20;;;;;;;;;;;;;;;11.40;72.06;99913.69;106096;1254;1002292;-73
2023/10/17 12:12:47;;;;;;;;;;;;;;;11.36;67.89;99913.29;106736;1254;73591;-74
2023/10/17 12:15:14;;;;;;;;;;;;;;;11.27;65.17;99919.21;106170;1250;70892;-74
2023/10/17 12:17:41;;;;;;;;;;;;;;;11.19;66.37;99918.59;106210;1250;72726;-74
2023/10/17 12:20:11;;;;;;;;;;;;;;;11.15;64.37;99917.84;106229;1255;61267;-74
2023/10/17 12:22:39;;;;;;;;;;;;;;;11.04;66.92;99915.68;106196;1251;61262;-74
2023/10/17 12:25:06;;;;;;;;;;;;;;;10.86;68.76;99907.46;107056;1251;73984;-74
2023/10/17 12:27:33;;;;;;;;;;;;;;;10.77;76.12;99904.91;106203;1256;72820;-74
2023/10/17 12:30:00;;;;;;;;;;;;;;;10.89;83.51;99905.44;106029;1250;72537;-74
2023/10/17 12:32:27;;;;;;;;;;;;;;;11.09;80.95;99903.44;107404;1250;61259;-75
2023/10/17 12:34:57;;;;;;;;;;;;;;;11.19;77.28;99905.77;106222;1250;61343;-74
2023/10/17 12:37:24;;;;;;;;;;;;;;;11.27;79.64;99901.30;106586;1251;74804;-74
2023/10/17 12:39:52;;;;;;;;;;;;;;;11.40;78.86;99906.51;106194;1256;71547;-74
2023/10/17 12:42:20;;;;;;;;;;;;;;;11.47;77.12;99900.11;107856;1250;73136;-74
2023/10/17 12:44:46;;;;;;;;;;;;;;;11.47;78.31;99904.17;106263;1250;61121;-73
2023/10/17 12:47:13;;;;;;;;;;;;;;;11.45;78.81;99901.05;106166;1250;61363;-73
2023/10/17 12:49:40;;;;;;;;;;;;;;;11.44;80.73;99908.66;106383;1256;74799;-74
2023/10/17 12:52:07;;;;;;;;;;;;;;;11.39;80.26;99910.92;106192;1250;71384;-75
2023/10/17 12:54:34;;;;;;;;;;;;;;;11.26;84.18;99908.89;106249;1250;72524;-74
2023/10/17 12:57:06;;;;;;;;;;;;;;;11.17;86.89;99907.92;106365;1259;61245;-73
2023/10/17 12:59:33;;;;;;;;;;;;;;;11.08;89.99;99908.71;107138;1256;61356;-73
2023/10/17 13:02:00;;;;;;;;;;;;;;;11.04;92.90;99915.67;106230;1252;74641;-73
2023/10/17 13:04:27;;;;;;;;;;;;;;;11.09;95.69;99914.13;106163;1251;72538;-75
2023/10/17 13:06:54;;;;;;;;;;;;;;;11.08;96.95;99913.27;106229;1255;72852;-74
2023/10/17 13:09:22;;;;;;;;;;;;;;;11.00;99.68;99915.45;106170;1251;61312;-73
2023/10/17 13:11:49;;;;;;;;;;;;;;;10.84;99.64;99912.78;106177;1256;61244;-72
2023/10/17 13:14:16;;;;;;;;;;;;;;;10.73;100.00;99912.19;106161;1256;74555;-74
2023/10/17 13:16:42;;;;;;;;;;;;;;;11.01;100.00;99912.98;106212;1256;71743;-74
2023/10/17 13:19:16;;;;;;;;;;;;;;;11.88;100.00;99904.94;106999;1254;72634;-74
2023/10/17 13:21:45;;;;;;;;;;;;;;;13.45;89.41;99896.52;106634;1256;61799;-74
2023/10/17 13:24:13;;;;;;;;;;;;;;;14.20;72.27;99893.08;106675;1255;61254;-75
2023/10/17 13:26:40;;;;;;;;;;;;;;;14.07;63.78;99897.53;107219;1256;75033;-74
2023/10/17 13:29:07;;;;;;;;;;;;;;;13.73;62.41;99905.48;106160;1254;70129;-74
2023/10/17 13:31:34;;;;;;;;;;;;;;;13.78;61.01;99911.09;106131;1256;73082;-74
2023/10/17 13:34:01;;;;;;;;;;;;;;;13.50;58.71;99910.30;106204;1250;61278;-74
2023/10/17 13:36:28;;;;;;;;;;;;;;;12.88;59.66;99909.13;107375;1254;61240;-74
2023/10/17 13:38:56;;;;;;;;;;;;;;;12.34;66.31;99912.00;106188;1254;74814;-74
2023/10/17 13:41:25;;;;;;;;;;;;;;;12.01;70.51;99913.50;106597;1251;71134;-75
2023/10/17 13:43:52;;;;;;;;;;;;;;;11.61;72.65;99916.52;106647;1251;73417;-75
2023/10/17 13:46:19;;;;;;;;;;;;;;;11.22;75.25;99919.15;106197;1251;61189;-75
2023/10/17 13:48:49;;;;;;;;;;;;;;;11.33;78.42;99921.29;106660;1251;61289;-74
2023/10/17 13:51:17;;;;;;;;;;;;;;;12.44;74.68;99910.20;106218;1255;73795;-74
2023/10/17 13:53:46;;;;;;;;;;;;;;;13.95;65.60;99901.19;106253;1254;70893;-74
2023/10/17 13:56:14;;;;;;;;;;;;;;;15.51;56.30;99895.38;107513;1251;72616;-74
2023/10/17 13:58:41;;;;;;;;;;;;;;;16.74;47.49;99885.92;106707;1256;62636;-74
2023/10/17 14:01:27;;;;;;;;;;;;;;;17.40;43.10;99887.27;106241;1254;61791;-75
2023/10/17 14:04:03;;;;;;;;;;;;;;;17.71;40.84;99877.19;106150;1252;75094;-74
2023/10/17 14:06:39;;;;;;;;;;;;;;;17.75;39.24;99873.17;107455;1255;71090;-73
2023/10/17 14:09:14;;;;;;;;;;;;;;;17.59;38.27;99872.54;106545;1251;72831;-74
2023/10/17 14:11:46;;;;;;;;;;;;;;;17.04;38.89;99874.21;107489;1250;61264;-74
2023/10/17 14:14:13;;;;;;;;;;;;;;;16.59;40.06;99873.65;106137;1252;61346;-74
2023/10/17 14:16:40;;;;;;;;;;;;;;;16.31;40.84;99879.02;106165;1256;75021;-74
2023/10/17 14:19:15;;;;;;;;;;;;;;;15.66;40.85;99889.52;106148;1251;70985;-74
2023/10/17 14:24:38;;;;;;;;;;;;;;;13.42;46.08;99892.27;107037;1256;61285;-74
2023/10/17 14:27:12;;;;;;;;;;;;;;;12.56;51.17;99893.80;106967;1251;61280;-74
2023/10/17 14:29:42;;;;;;;;;;;;;;;11.91;57.91;99892.70;106168;1256;73677;-74
2023/10/17 14:32:09;;;;;;;;;;;;;;;11.43;63.88;99897.80;106650;1251;70829;-74
2023/10/17 14:34:37;;;;;;;;;;;;;;;11.05;70.88;99899.15;107039;1251;72425;-74
2023/10/17 14:37:07;;;;;;;;;;;;;;;10.74;78.46;99899.71;106225;1254;61267;-73
2023/10/17 14:39:34;;;;;;;;;;;;;;;10.55;85.32;99895.89;106561;1257;61215;-73
2023/10/17 14:42:01;;;;;;;;;;;;;;;10.37;91.44;99898.13;106046;1257;73584;-73
2023/10/17 14:44:29;;;;;;;;;;;;;;;10.22;95.30;99897.63;106302;1252;71009;-74
2023/10/17 14:46:57;;;;;;;;;;;;;;;10.06;99.03;99897.88;106188;1256;72656;-75
2023/10/17 14:49:26;;;;;;;;;;;;;;;9.90;100.00;99900.75;106984;1251;61266;-72
2023/10/17 14:51:53;;;;;;;;;;;;;;;9.72;100.00;99901.91;106238;1254;61158;-74
2023/10/17 14:54:23;;;;;;;;;;;;;;;9.51;100.00;99901.52;106134;1255;74416;-74
2023/10/17 14:56:53;;;;;;;;;;;;;;;9.30;100.00;99914.10;106104;1251;72189;-74
2023/10/17 14:59:20;;;;;;;;;;;;;;;9.08;100.00;99908.30;108003;1250;72572;-74
2023/10/17 15:01:47;;;;;;;;;;;;;;;8.89;100.00;99908.71;106185;1256;61327;-75
2023/10/17 15:04:14;;;;;;;;;;;;;;;8.74;100.00;99910.43;106688;1251;61336;-73
2023/10/17 15:06:40;;;;;;;;;;;;;;;8.59;100.00;99910.02;106240;1254;75235;-74
2023/10/17 15:09:08;;;;;;;;;;;;;;;8.44;100.00;99914.87;106195;1255;71104;-73
2023/10/17 15:11:34;;;;;;;;;;;;;;;8.32;100.00;99915.42;106228;1256;72479;-74
2023/10/17 15:14:01;;;;;;;;;;;;;;;8.20;100.00;99914.77;106253;1251;61266;-72